Time;durP1;ratioP1;P1;durP2;ratioP2;P2;SDS_P1;SDS_P2;PMS_P1;PMS_P2;Temp;Humidity;BMP_temperature;BMP_pressure;BME280_temperature;BME280_humidity;BME280_pressure;Samples;Min_cycle;Max_cycle;Signal;HPM_P1;HPM_P2
2022/02/16 00:01:52;;;;;;;11.57;4.35;;;;;;;4.71;100.00;148847.17;1776869;78;21320;-66
2022/02/16 00:04:19;;;;;;;13.45;3.77;;;;;;;4.73;100.00;148851.02;1769272;79;21096;-67
2022/02/16 00:06:46;;;;;;;10.82;3.27;;;;;;;4.71;100.00;148845.84;1768683;79;21418;-61
2022/02/16 00:09:13;;;;;;;15.85;4.00;;;;;;;4.72;100.00;148848.44;1770592;79;21491;-60
2022/02/16 00:11:39;;;;;;;16.90;3.75;;;;;;;4.72;100.00;148848.44;1768718;80;21029;-59
2022/02/16 00:14:06;;;;;;;11.00;3.30;;;;;;;4.71;100.00;148845.84;1770965;81;21431;-60
2022/02/16 00:16:33;;;;;;;16.15;3.62;;;;;;;4.71;100.00;148845.84;1770850;79;21993;-60
2022/02/16 00:19:00;;;;;;;12.70;4.00;;;;;;;4.73;100.00;148851.02;1769869;81;20935;-66
2022/02/16 00:21:26;;;;;;;9.93;3.87;;;;;;;4.71;100.00;148845.84;1769934;80;21035;-67
2022/02/16 00:23:53;;;;;;;13.95;3.95;;;;;;;4.71;100.00;148845.84;1770235;81;21029;-67
2022/02/16 00:26:20;;;;;;;9.25;3.75;;;;;;;4.72;100.00;148848.44;1769094;81;21022;-67
2022/02/16 00:28:47;;;;;;;10.35;3.62;;;;;;;4.69;100.00;148842.00;1768486;79;21512;-67
2022/02/16 00:31:14;;;;;;;8.78;3.37;;;;;;;4.69;100.00;148842.00;1768545;80;21036;-67
2022/02/16 00:33:40;;;;;;;15.30;3.47;;;;;;;4.70;100.00;148843.27;1768316;81;21004;-60
2022/02/16 00:36:07;;;;;;;14.60;3.70;;;;;;;4.70;100.00;148843.27;1766770;80;21037;-59
2022/02/16 00:38:34;;;;;;;15.88;4.50;;;;;;;4.68;100.00;148838.11;1768742;79;21076;-59
2022/02/16 00:41:00;;;;;;;14.58;3.67;;;;;;;4.66;100.00;148832.94;1779746;79;21452;-60
2022/02/16 00:43:28;;;;;;;11.60;3.67;;;;;;;4.65;100.00;148830.36;1768655;79;21058;-58
2022/02/16 00:45:54;;;;;;;10.63;3.65;;;;;;;4.63;100.00;148825.19;1768456;79;20984;-66
2022/02/16 00:48:21;;;;;;;11.30;3.90;;;;;;;4.63;100.00;148825.19;1766327;81;21561;-66
2022/02/16 00:50:48;;;;;;;15.85;4.60;;;;;;;4.63;100.00;148825.19;1769633;79;21755;-59
2022/02/16 00:53:15;;;;;;;13.28;4.58;;;;;;;4.62;100.00;148822.63;1769132;81;21098;-60
2022/02/16 00:55:41;;;;;;;12.70;4.03;;;;;;;4.61;100.00;148821.30;1769539;79;21622;-60
2022/02/16 00:58:08;;;;;;;12.78;4.08;;;;;;;4.61;100.00;148820.03;1770419;79;21122;-60
2022/02/16 01:00:35;;;;;;;14.75;3.72;;;;;;;4.57;100.00;148812.28;1768862;81;21477;-66
2022/02/16 01:03:04;;;;;;;13.45;4.17;;;;;;;4.57;100.00;148812.28;1766392;81;21021;-65
2022/02/16 01:05:31;;;;;;;11.05;3.77;;;;;;;4.56;100.00;148809.72;1765582;81;21497;-65
2022/02/16 01:07:58;;;;;;;14.58;3.55;;;;;;;4.54;100.00;148803.23;1752008;81;21550;-66
2022/02/16 01:10:25;;;;;;;12.60;4.55;;;;;;;4.50;100.00;148794.17;1770755;79;21088;-66
2022/02/16 01:12:54;;;;;;;11.50;4.12;;;;;;;4.50;100.00;148794.17;1798828;79;21028;-65
2022/02/16 01:15:21;;;;;;;13.78;4.35;;;;;;;4.50;100.00;148794.17;1766590;79;21036;-65
2022/02/16 01:17:48;;;;;;;14.40;4.75;;;;;;;4.50;100.00;148792.91;1767621;81;21590;-59
2022/02/16 01:20:19;;;;;;;13.95;4.47;;;;;;;4.49;100.00;148791.59;1747785;79;20941;-66
2022/02/16 01:22:47;;;;;;;12.60;3.70;;;;;;;4.49;100.00;148791.59;1766402;80;20961;-67
2022/02/16 01:25:16;;;;;;;15.08;4.15;;;;;;;4.49;100.00;148791.59;1770799;79;21096;-67
2022/02/16 01:27:43;;;;;;;13.45;4.28;;;;;;;4.48;100.00;148789.02;1769804;81;21671;-66
2022/02/16 01:30:11;;;;;;;14.35;4.08;;;;;;;4.49;100.00;148791.59;1770762;81;21135;-66
2022/02/16 01:32:42;;;;;;;13.55;4.12;;;;;;;4.49;100.00;148791.59;1769231;80;22134;-66
2022/02/16 01:35:10;;;;;;;10.58;3.58;;;;;;;4.47;100.00;148786.44;1768529;80;21115;-66
2022/02/16 01:37:37;;;;;;;12.00;4.30;;;;;;;4.49;100.00;148791.59;1762516;81;21328;-66
2022/02/16 01:40:05;;;;;;;14.68;3.77;;;;;;;4.50;100.00;148792.91;1764770;80;21041;-66
2022/02/16 01:42:34;;;;;;;13.75;4.53;;;;;;;4.50;100.00;148792.91;1767801;79;21122;-66
2022/02/16 01:45:04;;;;;;;11.75;4.17;;;;;;;4.52;100.00;148799.34;1771038;81;21006;-66
2022/02/16 01:47:32;;;;;;;12.78;4.47;;;;;;;4.53;100.00;148800.66;1770203;79;21467;-66
2022/02/16 01:49:59;;;;;;;12.33;4.05;;;;;;;4.54;100.00;148804.55;1767851;79;21446;-67
2022/02/16 01:52:26;;;;;;;13.53;4.10;;;;;;;4.53;100.00;148801.97;1769411;81;21099;-66
2022/02/16 01:54:53;;;;;;;15.80;4.25;;;;;;;4.53;100.00;148801.97;1768526;81;21964;-68
2022/02/16 01:57:20;;;;;;;11.57;3.92;;;;;;;4.55;100.00;148805.81;1767573;81;21060;-67
2022/02/16 01:59:49;;;;;;;9.80;3.72;;;;;;;4.55;100.00;148805.81;1766290;80;21071;-67
2022/02/16 02:02:35;;;;;;;15.53;4.28;;;;;;;4.56;100.00;148809.72;1768987;79;21065;-66
2022/02/16 02:05:06;;;;;;;9.60;3.50;;;;;;;4.56;100.00;148808.41;1741452;81;20993;-66
2022/02/16 02:07:36;;;;;;;12.28;3.92;;;;;;;4.56;100.00;148809.72;1770946;81;21029;-66
2022/02/16 02:10:04;;;;;;;11.78;3.47;;;;;;;4.56;100.00;148809.72;1777811;79;21041;-66
2022/02/16 02:12:32;;;;;;;19.45;4.03;;;;;;;4.54;100.00;148804.55;1780788;79;21393;-67
2022/02/16 02:14:59;;;;;;;15.10;3.85;;;;;;;4.53;100.00;148801.97;1767633;81;20854;-67
2022/02/16 02:17:28;;;;;;;10.78;3.80;;;;;;;4.53;100.00;148801.97;1765896;80;21017;-66
2022/02/16 02:19:59;;;;;;;17.85;3.60;;;;;;;4.53;100.00;148800.66;1769596;79;21416;-60
2022/02/16 02:22:26;;;;;;;13.72;4.03;;;;;;;4.54;100.00;148804.55;1770674;79;21039;-59
2022/02/16 02:24:53;;;;;;;12.40;4.33;;;;;;;4.53;100.00;148801.97;1767017;79;21066;-60
2022/02/16 02:27:19;;;;;;;14.47;4.08;;;;;;;4.53;100.00;148801.97;1769251;81;21012;-60
2022/02/16 02:29:47;;;;;;;9.25;3.72;;;;;;;4.52;100.00;148799.34;1767073;81;21446;-60
2022/02/16 02:32:17;;;;;;;12.33;3.65;;;;;;;4.52;100.00;148799.34;1767882;81;22950;-60
2022/02/16 02:34:44;;;;;;;14.47;3.65;;;;;;;4.52;100.00;148799.34;1768514;79;21032;-66
2022/02/16 02:37:11;;;;;;;16.65;4.03;;;;;;;4.52;100.00;148799.34;1769637;79;21020;-66
2022/02/16 02:39:38;;;;;;;13.15;3.70;;;;;;;4.55;100.00;148805.81;1772293;79;21067;-67
2022/02/16 02:42:05;;;;;;;14.98;4.22;;;;;;;4.57;100.00;148810.97;1785318;78;21423;-60
2022/02/16 02:44:35;;;;;;;8.58;3.70;;;;;;;4.59;100.00;148817.45;1773671;79;21601;-68
2022/02/16 02:47:03;;;;;;;16.42;4.85;;;;;;;4.61;100.00;148820.03;1769051;81;21438;-66
2022/02/16 02:49:30;;;;;;;13.62;4.92;;;;;;;4.62;100.00;148823.87;1750773;79;21075;-59
2022/02/16 02:51:57;;;;;;;16.55;4.15;;;;;;;4.64;100.00;148827.78;1766563;81;21087;-65
2022/02/16 02:54:24;;;;;;;13.75;3.87;;;;;;;4.63;100.00;148825.19;1770420;79;21684;-65
2022/02/16 02:56:51;;;;;;;21.57;4.83;;;;;;;4.66;100.00;148834.25;1769401;79;21544;-59
2022/02/16 02:59:18;;;;;;;16.27;4.53;;;;;;;4.70;100.00;148843.27;1770145;79;21550;-59
2022/02/16 03:01:46;;;;;;;11.00;4.25;;;;;;;4.70;100.00;148843.27;1770294;81;21046;-59
2022/02/16 03:04:13;;;;;;;14.35;4.15;;;;;;;4.74;100.00;148853.59;1767728;81;21477;-60
2022/02/16 03:06:39;;;;;;;10.48;3.98;;;;;;;4.78;100.00;148862.66;1766550;80;21074;-60
2022/02/16 03:09:06;;;;;;;13.78;3.77;;;;;;;4.83;100.00;148876.88;1766287;81;21542;-59
2022/02/16 03:11:33;;;;;;;17.57;4.25;;;;;;;4.86;100.00;148884.63;1774960;79;21052;-59
2022/02/16 03:14:01;;;;;;;14.25;4.33;;;;;;;4.87;100.00;148887.20;1768312;79;21076;-59
2022/02/16 03:16:29;;;;;;;10.55;4.10;;;;;;;4.94;100.00;148902.69;1769216;80;21632;-59
2022/02/16 03:18:57;;;;;;;14.93;4.33;;;;;;;4.94;100.00;148902.69;1768760;79;21447;-59
2022/02/16 03:21:23;;;;;;;21.57;5.05;;;;;;;5.00;100.00;148919.50;1764780;81;21123;-59
2022/02/16 03:23:51;;;;;;;21.02;4.45;;;;;;;5.04;100.00;148928.56;1770399;79;21021;-60
2022/02/16 03:26:19;;;;;;;13.70;4.40;;;;;;;5.09;100.00;148941.47;1771039;79;21035;-59
2022/02/16 03:28:45;;;;;;;10.20;4.50;;;;;;;5.09;100.00;148941.47;1767515;79;21056;-59
2022/02/16 03:31:17;;;;;;;15.00;4.28;;;;;;;5.14;100.00;148954.39;1767157;80;21049;-59
2022/02/16 03:33:45;;;;;;;17.05;4.78;;;;;;;5.19;100.00;148964.72;1765825;81;21199;-59
2022/02/16 03:36:13;;;;;;;12.98;4.33;;;;;;;5.21;100.00;148969.94;1775093;79;21028;-59
2022/02/16 03:38:41;;;;;;;17.85;4.00;;;;;;;5.23;100.00;148975.09;1783372;80;21061;-60
2022/02/16 03:41:08;;;;;;;14.18;4.08;;;;;;;5.28;100.00;148988.02;1784152;79;20925;-60
2022/02/16 03:43:35;;;;;;;15.40;4.20;;;;;;;5.29;100.00;148991.86;1784054;80;21446;-60
2022/02/16 03:46:02;;;;;;;13.05;4.22;;;;;;;5.31;100.00;148995.77;1783898;80;21087;-60
2022/02/16 03:48:30;;;;;;;11.03;4.00;;;;;;;5.34;100.00;149002.25;1783206;80;21088;-61
2022/02/16 03:50:59;;;;;;;12.78;4.20;;;;;;;5.35;100.00;149006.09;1786232;80;21001;-60
2022/02/16 03:53:26;;;;;;;13.48;4.03;;;;;;;5.35;100.00;149006.09;1768037;80;21485;-59
2022/02/16 03:55:54;;;;;;;12.70;4.15;;;;;;;5.37;100.00;149011.25;1787092;78;21060;-60
2022/02/16 03:58:20;;;;;;;13.35;4.50;;;;;;;5.37;100.00;149011.25;1778155;79;21204;-59
2022/02/16 04:00:47;;;;;;;11.65;4.00;;;;;;;5.38;100.00;149013.84;1785613;79;21052;-59
2022/02/16 04:03:14;;;;;;;11.05;4.35;;;;;;;5.43;100.00;149026.81;1785332;79;21106;-66
2022/02/16 04:05:42;;;;;;;14.68;4.70;;;;;;;5.43;100.00;149026.81;1784630;80;21041;-66
2022/02/16 04:08:09;;;;;;;15.72;5.08;;;;;;;5.45;100.00;149031.97;1787078;79;20946;-67
2022/02/16 04:10:37;;;;;;;10.80;3.90;;;;;;;5.46;100.00;149033.23;1787204;79;21585;-59
2022/02/16 04:13:06;;;;;;;16.90;5.03;;;;;;;5.47;100.00;149034.56;1784813;80;20936;-66
2022/02/16 04:15:36;;;;;;;15.00;4.15;;;;;;;5.47;100.00;149034.56;1784292;79;21115;-67
2022/02/16 04:18:05;;;;;;;12.70;4.08;;;;;;;5.47;100.00;149034.56;1785206;79;21633;-66
2022/02/16 04:20:33;;;;;;;12.35;5.00;;;;;;;5.47;100.00;149034.56;1786019;79;21099;-61
2022/02/16 04:23:00;;;;;;;16.75;4.55;;;;;;;5.49;100.00;149039.72;1786105;79;21138;-66
2022/02/16 04:25:27;;;;;;;16.82;4.53;;;;;;;5.49;100.00;149039.72;1786594;80;21052;-66
2022/02/16 04:27:54;;;;;;;14.40;4.47;;;;;;;5.47;100.00;149035.81;1787170;80;20909;-60
2022/02/16 04:30:22;;;;;;;12.43;4.47;;;;;;;5.45;100.00;149031.97;1786339;79;21099;-66
2022/02/16 04:32:49;;;;;;;14.38;5.15;;;;;;;5.47;100.00;149034.56;1785803;80;21125;-59
2022/02/16 04:35:15;;;;;;;12.85;4.65;;;;;;;5.49;100.00;149039.72;1785745;79;21116;-59
2022/02/16 04:37:42;;;;;;;18.48;4.40;;;;;;;5.51;100.00;149044.89;1772955;80;20961;-59
2022/02/16 04:40:10;;;;;;;13.18;4.33;;;;;;;5.52;100.00;149047.47;1772313;79;21056;-59
2022/02/16 04:42:38;;;;;;;14.25;4.92;;;;;;;5.52;100.00;149047.47;1785160;78;21788;-61
2022/02/16 04:45:08;;;;;;;15.60;4.17;;;;;;;5.52;100.00;149047.47;1767540;81;20954;-62
2022/02/16 04:47:35;;;;;;;13.13;4.55;;;;;;;5.52;100.00;149047.47;1761908;81;21124;-60
2022/02/16 04:50:03;;;;;;;11.57;4.33;;;;;;;5.54;100.00;149052.64;1755032;81;21007;-62
2022/02/16 04:52:35;;;;;;;13.55;4.67;;;;;;;5.55;100.00;149056.53;1766619;80;21103;-61
2022/02/16 04:55:08;;;;;;;12.68;4.97;;;;;;;5.56;100.00;149059.12;1754470;81;21049;-66
2022/02/16 05:00:21;;;;;;;12.05;4.22;;;;;;;5.57;100.00;149061.70;1757060;81;22051;-60
2022/02/16 05:02:50;;;;;;;16.48;4.30;;;;;;;5.59;100.00;149065.55;1768757;79;21000;-67
2022/02/16 05:05:19;;;;;;;18.77;5.15;;;;;;;5.59;100.00;149065.55;1769365;81;21085;-66
2022/02/16 05:07:46;;;;;;;11.22;4.30;;;;;;;5.59;100.00;149066.88;1769758;81;22234;-66
2022/02/16 05:10:13;;;;;;;16.90;4.78;;;;;;;5.61;100.00;149070.72;1769316;81;21258;-67
2022/02/16 05:12:41;;;;;;;18.85;5.20;;;;;;;5.63;100.00;149075.89;1774968;78;22521;-61
2022/02/16 05:15:08;;;;;;;12.60;4.60;;;;;;;5.63;100.00;149075.89;1770122;79;20917;-67
2022/02/16 05:17:35;;;;;;;11.48;4.40;;;;;;;5.64;100.00;149078.52;1769475;81;21020;-66
2022/02/16 05:20:04;;;;;;;14.83;4.85;;;;;;;5.64;100.00;149078.52;1769448;79;21522;-66
2022/02/16 05:22:32;;;;;;;18.07;5.50;;;;;;;5.64;100.00;149078.52;1769457;81;21004;-66
2022/02/16 05:24:59;;;;;;;12.63;4.28;;;;;;;5.65;100.00;149081.09;1769149;81;21967;-66
2022/02/16 05:27:26;;;;;;;13.30;4.45;;;;;;;5.63;100.00;149074.63;1768454;79;21064;-60
2022/02/16 05:29:53;;;;;;;16.20;5.05;;;;;;;5.64;100.00;149078.52;1770960;79;21076;-60
2022/02/16 05:32:20;;;;;;;10.45;4.83;;;;;;;5.65;100.00;149081.09;1768287;81;21111;-66
2022/02/16 05:34:48;;;;;;;13.00;4.65;;;;;;;5.65;100.00;149081.09;1766349;80;21052;-59
2022/02/16 05:37:15;;;;;;;15.50;4.75;;;;;;;5.67;100.00;149084.95;1772256;79;21318;-68
2022/02/16 05:39:42;;;;;;;19.85;4.87;;;;;;;5.67;100.00;149086.27;1781106;80;21021;-68
2022/02/16 05:42:10;;;;;;;13.78;4.85;;;;;;;5.67;100.00;149084.95;1779711;80;20965;-67
2022/02/16 05:44:39;;;;;;;18.82;4.90;;;;;;;5.68;100.00;149088.84;1780650;79;21040;-61
2022/02/16 05:47:07;;;;;;;14.78;5.28;;;;;;;5.69;100.00;149091.44;1781039;80;21099;-60
2022/02/16 05:49:35;;;;;;;18.35;4.87;;;;;;;5.71;100.00;149096.59;1779363;79;21068;-60
2022/02/16 05:52:03;;;;;;;14.68;5.05;;;;;;;5.72;100.00;149099.19;1780232;80;20980;-66
2022/02/16 05:54:30;;;;;;;18.57;5.12;;;;;;;5.74;100.00;149104.34;1780363;80;20984;-66
2022/02/16 05:56:57;;;;;;;13.72;5.80;;;;;;;5.78;100.00;149112.11;1780944;78;21053;-66
2022/02/16 05:59:24;;;;;;;13.10;5.37;;;;;;;5.81;100.00;149121.17;1781087;79;21596;-59
2022/02/16 06:01:52;;;;;;;19.40;5.50;;;;;;;5.85;100.00;149130.19;1781232;79;21111;-60
2022/02/16 06:04:20;;;;;;;17.55;5.20;;;;;;;5.86;100.00;149134.09;1780647;79;21080;-67
2022/02/16 06:06:49;;;;;;;20.88;6.55;;;;;;;5.88;100.00;149138.00;1779511;80;21520;-66
2022/02/16 06:09:17;;;;;;;19.92;5.70;;;;;;;5.90;100.00;149141.84;1779423;79;21499;-67
2022/02/16 06:11:44;;;;;;;15.03;5.53;;;;;;;5.90;100.00;149143.16;1787355;79;21099;-66
2022/02/16 06:14:13;;;;;;;19.45;5.85;;;;;;;5.93;100.00;149150.91;1777345;80;21688;-69
2022/02/16 06:16:40;;;;;;;13.95;6.33;;;;;;;5.94;100.00;149153.50;1780285;78;21046;-67
2022/02/16 06:19:07;;;;;;;22.13;6.17;;;;;;;5.97;100.00;149159.97;1780921;79;20871;-66
2022/02/16 06:21:34;;;;;;;15.80;5.87;;;;;;;5.99;100.00;149166.41;1777197;79;21127;-67
2022/02/16 06:24:02;;;;;;;15.35;5.78;;;;;;;5.96;100.00;149158.66;1778613;80;21025;-67
2022/02/16 06:26:29;;;;;;;14.87;6.08;;;;;;;5.94;100.00;149153.50;1779450;80;21124;-67
2022/02/16 06:28:57;;;;;;;19.23;7.03;;;;;;;5.96;100.00;149158.66;1777446;80;21024;-67
2022/02/16 06:31:26;;;;;;;15.08;6.97;;;;;;;5.99;100.00;149165.16;1780840;80;21070;-67
2022/02/16 06:33:54;;;;;;;14.68;5.95;;;;;;;6.05;100.00;149179.39;1777607;79;21578;-67
2022/02/16 06:36:22;;;;;;;23.38;7.25;;;;;;;6.07;100.00;149185.88;1729437;81;21643;-67
2022/02/16 06:38:51;;;;;;;16.55;6.97;;;;;;;6.10;100.00;149192.36;1765835;80;21544;-66
2022/02/16 06:41:18;;;;;;;16.27;7.25;;;;;;;6.12;100.00;149197.53;1772414;79;21052;-66
2022/02/16 06:43:45;;;;;;;15.23;6.85;;;;;;;6.19;100.00;149214.30;1782919;78;21087;-66
2022/02/16 06:46:12;;;;;;;18.20;6.90;;;;;;;6.21;100.00;149219.52;1771220;80;21014;-66
2022/02/16 06:48:39;;;;;;;17.37;6.92;;;;;;;6.23;100.00;149224.69;1767364;81;21056;-68
2022/02/16 06:51:06;;;;;;;21.37;7.40;;;;;;;6.24;100.00;149228.53;1767790;79;21203;-68
2022/02/16 06:53:33;;;;;;;21.40;7.67;;;;;;;6.28;100.00;149238.88;1751485;79;21087;-67
2022/02/16 06:56:01;;;;;;;19.73;8.05;;;;;;;6.32;100.00;149246.69;1767435;80;21060;-67
2022/02/16 06:58:45;;;;;;;20.17;7.83;;;;;;;6.34;100.00;149251.84;1725718;81;21160;-67
2022/02/16 07:01:11;;;;;;;21.23;7.58;;;;;;;6.35;100.00;149254.44;1695416;82;20984;-68
2022/02/16 07:03:39;;;;;;;20.80;6.97;;;;;;;6.37;100.00;149259.59;1719838;81;23240;-67
2022/02/16 07:06:07;;;;;;;21.07;6.67;;;;;;;6.37;100.00;149259.59;1684863;84;21060;-66
2022/02/16 07:08:35;;;;;;;21.57;7.58;;;;;;;6.37;100.00;149259.59;1734615;82;21005;-66
2022/02/16 07:11:02;;;;;;;17.42;7.17;;;;;;;6.39;100.00;149264.78;1721705;81;21389;-67
2022/02/16 07:13:31;;;;;;;21.55;6.95;;;;;;;6.42;100.00;149272.53;1765481;79;21292;-66
2022/02/16 07:15:59;;;;;;;19.98;7.25;;;;;;;6.45;100.00;149280.28;1749699;79;22000;-67
2022/02/16 07:18:29;;;;;;;25.70;7.45;;;;;;;6.48;100.00;149288.03;1768628;79;21478;-67
2022/02/16 07:20:57;;;;;;;22.73;7.67;;;;;;;6.49;100.00;149290.63;1770432;79;21049;-67
2022/02/16 07:23:23;;;;;;;16.40;7.12;;;;;;;6.54;100.00;149302.28;1768313;79;21056;-68
2022/02/16 07:25:52;;;;;;;20.00;7.08;;;;;;;6.58;100.00;149312.63;1772777;79;20953;-66
2022/02/16 07:28:22;;;;;;;15.13;6.40;;;;;;;6.62;100.00;149321.69;1764825;79;21526;-67
2022/02/16 07:30:50;;;;;;;17.90;6.80;;;;;;;6.63;100.00;149324.28;1774722;78;21035;-66
2022/02/16 07:33:17;;;;;;;16.45;6.62;;;;;;;6.65;100.00;149329.45;1771850;79;21645;-66
2022/02/16 07:38:28;;;;;;;13.70;5.47;;;;;;;6.69;100.00;149341.11;1778162;78;21414;-67
2022/02/16 07:40:59;;;;;;;17.62;6.95;;;;;;;6.71;100.00;149344.97;1789174;78;21164;-67
2022/02/16 07:43:25;;;;;;;20.50;7.17;;;;;;;6.73;100.00;149351.45;1782800;78;21075;-68
2022/02/16 07:46:09;;;;;;;21.75;7.00;;;;;;;6.78;100.00;149361.80;1781930;78;21060;-67
2022/02/16 07:48:37;;;;;;;17.42;7.20;;;;;;;6.84;100.00;149378.63;1782148;78;21058;-68
2022/02/16 07:51:18;;;;;;;19.67;7.40;;;;;;;6.87;100.00;149386.37;1786703;78;21627;-61
2022/02/16 07:53:50;;;;;;;18.65;6.40;;;;;;;6.91;100.00;149395.47;1761501;79;21135;-60
2022/02/16 07:56:17;;;;;;;17.27;7.75;;;;;;;6.93;100.00;149400.63;1781847;78;21176;-60
2022/02/16 07:58:44;;;;;;;14.00;6.45;;;;;;;6.97;100.00;149410.97;1784041;78;21256;-60
2022/02/16 08:01:11;;;;;;;21.85;6.58;;;;;;;7.01;100.00;149421.31;1782128;79;21039;-60
2022/02/16 08:03:41;;;;;;;16.00;6.40;;;;;;;7.04;100.00;149427.81;1779727;79;21051;-67
2022/02/16 08:06:08;;;;;;;15.85;6.55;;;;;;;7.06;100.00;149431.66;1781449;78;21158;-68
2022/02/16 08:08:35;;;;;;;13.00;6.60;;;;;;;7.09;100.00;149439.47;1784035;78;21059;-67
2022/02/16 08:11:03;;;;;;;18.67;6.05;;;;;;;7.11;100.00;149445.91;1782712;78;21545;-68
2022/02/16 08:13:32;;;;;;;18.70;6.47;;;;;;;7.19;100.00;149464.06;1755651;79;21422;-67
2022/02/16 08:16:13;;;;;;;15.55;7.15;;;;;;;7.26;100.00;149483.44;1783011;78;21032;-67
2022/02/16 08:18:47;;;;;;;26.90;7.80;;;;;;;7.30;100.00;149492.53;1779702;79;21491;-67
2022/02/16 08:21:15;;;;;;;17.82;7.22;;;;;;;7.31;100.00;149495.11;1780129;78;21044;-67
2022/02/16 08:23:44;;;;;;;25.92;8.98;;;;;;;7.31;100.00;149495.11;1783710;79;21092;-67
2022/02/16 08:26:11;;;;;;;16.30;6.85;;;;;;;7.29;100.00;149491.25;1789055;79;21040;-67
2022/02/16 08:28:40;;;;;;;19.55;6.58;;;;;;;7.31;100.00;149495.11;1778553;78;21096;-67
2022/02/16 08:31:10;;;;;;;18.32;6.90;;;;;;;7.33;100.00;149500.28;1776592;78;21127;-60
2022/02/16 08:33:39;;;;;;;19.05;7.10;;;;;;;7.30;100.00;149493.84;1775399;78;21056;-60
2022/02/16 08:36:08;;;;;;;25.72;7.33;;;;;;;7.31;100.00;149495.11;1779593;78;21341;-59
2022/02/16 08:38:36;;;;;;;19.05;6.80;;;;;;;7.33;100.00;149500.28;1745429;79;21090;-59
2022/02/16 08:41:04;;;;;;;20.70;7.10;;;;;;;7.35;100.00;149505.45;1780899;79;21434;-62
2022/02/16 08:43:31;;;;;;;15.32;7.37;;;;;;;7.39;100.00;149514.53;1773940;79;21126;-60
2022/02/16 08:46:00;;;;;;;21.05;6.90;;;;;;;7.44;100.00;149528.78;1773866;77;22262;-60
2022/02/16 08:48:28;;;;;;;21.97;7.65;;;;;;;7.49;100.00;149540.41;1774157;79;21048;-62
2022/02/16 08:50:56;;;;;;;27.65;7.58;;;;;;;7.56;100.00;149557.25;1775303;79;21115;-65
2022/02/16 08:53:26;;;;;;;21.55;7.72;;;;;;;7.64;100.00;149578.00;1784595;79;21095;-66
2022/02/16 08:55:53;;;;;;;22.25;7.47;;;;;;;7.73;100.00;149601.28;1777180;78;21124;-66
2022/02/16 08:58:21;;;;;;;21.62;7.75;;;;;;;7.87;100.00;149634.97;1781288;78;22201;-66
2022/02/16 09:00:49;;;;;;;25.68;8.05;;;;;;;7.99;100.00;149664.75;1761785;79;21695;-66
2022/02/16 09:03:16;;;;;;;20.95;7.75;;;;;;;8.13;100.00;149699.72;1775490;80;21050;-66
2022/02/16 09:05:43;;;;;;;21.70;8.55;;;;;;;8.23;100.00;149724.34;1769720;79;21072;-65
2022/02/16 09:08:11;;;;;;;22.62;7.45;;;;;;;8.31;99.94;149746.38;1781472;79;22017;-66
2022/02/16 09:10:38;;;;;;;15.98;8.13;;;;;;;8.38;99.20;149761.89;1776182;78;21097;-66
2022/02/16 09:13:06;;;;;;;20.00;7.83;;;;;;;8.45;98.67;149781.34;1769959;78;21015;-66
2022/02/16 09:15:33;;;;;;;21.73;8.13;;;;;;;8.53;98.27;149800.83;1784578;78;21130;-67
2022/02/16 09:18:00;;;;;;;18.23;6.85;;;;;;;8.59;97.57;149816.36;1772053;79;21083;-66
2022/02/16 09:20:30;;;;;;;24.85;7.87;;;;;;;8.69;97.42;149839.67;1771298;79;21143;-66
2022/02/16 09:22:58;;;;;;;26.17;8.75;;;;;;;8.82;97.20;149873.38;1772414;79;21067;-67
2022/02/16 09:25:25;;;;;;;17.00;7.20;;;;;;;8.96;96.20;149907.09;1774497;78;21537;-67
2022/02/16 09:27:52;;;;;;;22.20;7.62;;;;;;;9.03;95.09;149925.23;1773045;79;21037;-67
2022/02/16 09:30:19;;;;;;;17.40;9.13;;;;;;;9.06;94.46;149933.00;1768128;79;21088;-66
2022/02/16 09:32:46;;;;;;;17.55;8.40;;;;;;;9.09;94.13;149940.77;1777497;79;21844;-66
2022/02/16 09:35:14;;;;;;;16.85;8.13;;;;;;;9.15;93.89;149955.03;1781871;79;21086;-65
2022/02/16 09:37:42;;;;;;;19.55;8.48;;;;;;;9.20;92.98;149966.72;1783103;79;21043;-66
2022/02/16 09:40:11;;;;;;;19.05;8.85;;;;;;;9.22;92.77;149971.91;1777773;78;21528;-66
2022/02/16 09:42:40;;;;;;;20.72;8.33;;;;;;;9.22;92.59;149973.17;1782004;78;22432;-66
2022/02/16 09:45:09;;;;;;;21.37;8.33;;;;;;;9.26;92.34;149982.27;1780791;78;22273;-65
2022/02/16 09:47:37;;;;;;;21.68;8.20;;;;;;;9.29;92.07;149991.36;1782026;78;21650;-66
2022/02/16 09:50:06;;;;;;;16.97;8.13;;;;;;;9.38;91.85;150013.34;1708877;80;21020;-66
2022/02/16 09:52:34;;;;;;;20.23;8.63;;;;;;;9.43;91.16;150026.36;1781589;78;21001;-66
2022/02/16 09:55:02;;;;;;;22.27;8.63;;;;;;;9.53;91.07;150049.67;1781015;78;21478;-66
2022/02/16 09:57:29;;;;;;;20.48;8.13;;;;;;;9.63;90.85;150074.31;1788511;79;21517;-67
2022/02/16 09:59:56;;;;;;;22.98;8.05;;;;;;;9.70;90.21;150093.78;1783707;78;21118;-67
2022/02/16 10:02:23;;;;;;;19.30;8.18;;;;;;;9.68;89.23;150088.59;1782797;79;21044;-66
2022/02/16 10:04:57;;;;;;;27.48;8.20;;;;;;;9.58;88.47;150062.62;1734875;80;21025;-67
2022/02/16 10:07:30;;;;;;;27.37;8.10;;;;;;;9.44;88.51;150028.95;1785678;78;20968;-66
2022/02/16 10:10:22;;;;;;;22.35;9.05;;;;;;;9.35;88.46;150005.58;1782583;78;21730;-66
2022/02/16 10:12:53;;;;;;;22.22;8.53;;;;;;;9.22;88.56;149971.91;1777432;78;21301;-68
2022/02/16 10:15:26;;;;;;;19.12;7.60;;;;;;;9.11;88.84;149944.69;1781088;78;21055;-60
2022/02/16 10:18:14;;;;;;;18.55;8.20;;;;;;;9.06;89.03;149933.00;1778923;78;21040;-62
2022/02/16 10:20:42;;;;;;;32.85;8.63;;;;;;;9.05;89.34;149930.41;1785978;78;21509;-60
2022/02/16 10:23:10;;;;;;;23.53;8.53;;;;;;;9.08;89.47;149938.19;1778943;80;21172;-61
2022/02/16 10:25:37;;;;;;;18.98;8.58;;;;;;;9.17;89.59;149961.53;1785798;78;21201;-61
2022/02/16 10:28:12;;;;;;;25.95;8.70;;;;;;;9.21;89.06;149969.31;1784946;78;21052;-62
2022/02/16 10:30:57;;;;;;;22.93;7.60;;;;;;;9.24;89.26;149977.08;1782728;79;21036;-62
2022/02/16 10:33:39;;;;;;;22.98;8.33;;;;;;;9.33;89.22;150000.41;1768891;78;36335;-61
2022/02/16 10:36:09;;;;;;;27.10;10.48;;;;;;;9.45;88.79;150031.53;1786931;78;22309;-66
2022/02/16 10:39:00;;;;;;;16.93;7.87;;;;;;;9.52;88.56;150047.09;1787323;78;21700;-68
2022/02/16 10:41:34;;;;;;;22.40;7.72;;;;;;;9.52;87.94;150048.41;1776777;79;20965;-60
2022/02/16 10:44:02;;;;;;;19.65;7.35;;;;;;;9.43;87.27;150026.36;1772674;79;21056;-66
2022/02/16 10:46:31;;;;;;;18.80;8.65;;;;;;;9.29;87.38;149990.03;1774269;79;20985;-65
2022/02/16 10:49:19;;;;;;;25.80;8.13;;;;;;;9.14;87.64;149953.72;1776070;79;21127;-62
2022/02/16 10:51:47;;;;;;;17.37;7.60;;;;;;;9.02;88.06;149923.91;1777147;79;21241;-61
2022/02/16 10:54:18;;;;;;;26.02;8.40;;;;;;;8.98;88.55;149913.55;1776528;79;21057;-70
2022/02/16 10:56:48;;;;;;;18.42;7.40;;;;;;;8.96;88.57;149907.09;1770796;79;21045;-68
2022/02/16 10:59:15;;;;;;;18.15;7.03;;;;;;;8.89;88.88;149890.23;1779316;79;21094;-66
2022/02/16 11:01:43;;;;;;;22.15;7.97;;;;;;;8.85;89.10;149881.16;1771509;79;21116;-69
2022/02/16 11:04:14;;;;;;;19.87;7.47;;;;;;;8.83;89.12;149875.97;1769559;79;21081;-68
2022/02/16 11:06:47;;;;;;;17.52;7.55;;;;;;;8.78;89.24;149863.03;1781715;79;20916;-68
2022/02/16 11:09:21;;;;;;;21.27;7.47;;;;;;;8.72;89.43;149847.44;1773457;79;20999;-69
2022/02/16 11:11:49;;;;;;;17.82;7.90;;;;;;;8.66;89.87;149833.22;1770237;79;21104;-69
2022/02/16 11:14:16;;;;;;;19.57;7.75;;;;;;;8.64;90.07;149828.05;1776401;79;21100;-68
2022/02/16 11:16:46;;;;;;;16.20;8.05;;;;;;;8.59;90.08;149815.05;1770976;78;21203;-66
2022/02/16 11:19:27;;;;;;;20.88;7.80;;;;;;;8.52;90.42;149798.23;1776996;79;21032;-67
2022/02/16 11:22:13;;;;;;;22.10;8.95;;;;;;;8.51;90.81;149795.66;1766434;79;21052;-68
2022/02/16 11:24:46;;;;;;;23.10;9.13;;;;;;;8.52;91.00;149798.23;1708300;82;21162;-67
2022/02/16 11:27:38;;;;;;;23.42;9.05;;;;;;;8.50;91.17;149793.02;1714545;82;21143;-68
2022/02/16 11:30:08;;;;;;;22.20;8.43;;;;;;;8.54;91.58;149803.42;1708493;82;21068;-67
2022/02/16 11:32:39;;;;;;;23.92;8.70;;;;;;;8.64;91.77;149826.72;1704912;82;21117;-67